Time;durP1;ratioP1;P1;durP2;ratioP2;P2;SDS_P1;SDS_P2;PMS_P1;PMS_P2;Temp;Humidity;BMP_temperature;BMP_pressure;BME280_temperature;BME280_humidity;BME280_pressure;Samples;Min_cycle;Max_cycle;Signal;HPM_P1;HPM_P2
2023/06/24 00:00:39;;;;;;;0.00;0.00;;;18.80;73.20;;;;;;5012200;28;20048;-66
2023/06/24 00:03:07;;;;;;;0.00;0.00;;;18.80;73.10;;;;;;5030116;28;20054;-66
2023/06/24 00:05:33;;;;;;;0.00;0.00;;;18.70;73.40;;;;;;5028710;28;20740;-65
2023/06/24 00:08:01;;;;;;;0.00;0.00;;;18.70;73.50;;;;;;5015205;28;20103;-65
2023/06/24 00:10:28;;;;;;;0.00;0.00;;;18.60;73.80;;;;;;5023801;28;20049;-66
2023/06/24 00:12:54;;;;;;;0.00;0.00;;;18.60;74.00;;;;;;5011315;28;20530;-67
2023/06/24 00:15:20;;;;;;;0.00;0.00;;;18.50;74.10;;;;;;5011951;28;20099;-67
2023/06/24 00:17:45;;;;;;;0.00;0.00;;;18.60;73.70;;;;;;5029061;28;20156;-66
2023/06/24 00:20:14;;;;;;;0.00;0.00;;;18.60;73.60;;;;;;5029139;28;20932;-66
2023/06/24 00:22:43;;;;;;;0.00;0.00;;;18.50;73.80;;;;;;5029129;28;20426;-66
2023/06/24 00:25:09;;;;;;;0.00;0.00;;;18.50;73.80;;;;;;5029286;28;20160;-66
2023/06/24 00:27:35;;;;;;;0.10;0.10;;;18.50;73.80;;;;;;5028619;28;20125;-66
2023/06/24 00:30:00;;;;;;;0.00;0.00;;;18.50;74.00;;;;;;5029282;28;20037;-66
2023/06/24 00:32:26;;;;;;;0.00;0.00;;;18.50;73.80;;;;;;5029194;28;20088;-66
2023/06/24 00:34:51;;;;;;;0.00;0.00;;;18.50;73.80;;;;;;5011407;28;20096;-66
2023/06/24 00:37:17;;;;;;;0.00;0.00;;;18.40;73.70;;;;;;5029338;28;20107;-66
2023/06/24 00:39:42;;;;;;;0.00;0.00;;;18.40;73.70;;;;;;5011027;28;20554;-65
2023/06/24 00:42:08;;;;;;;0.00;0.00;;;18.30;74.10;;;;;;5028910;28;20038;-66
2023/06/24 00:44:34;;;;;;;0.00;0.00;;;18.40;74.00;;;;;;5028994;28;20073;-66
2023/06/24 00:47:01;;;;;;;0.43;0.43;;;18.40;74.10;;;;;;5029251;28;20099;-66
2023/06/24 00:49:27;;;;;;;0.00;0.00;;;18.30;74.10;;;;;;5011225;28;20053;-66
2023/06/24 00:51:53;;;;;;;0.00;0.00;;;18.30;74.10;;;;;;5029263;28;20041;-66
2023/06/24 00:54:18;;;;;;;0.00;0.00;;;18.30;74.10;;;;;;5029306;28;20099;-66
2023/06/24 00:56:44;;;;;;;0.00;0.00;;;18.30;74.20;;;;;;5028586;28;20103;-66
2023/06/24 00:59:14;;;;;;;0.00;0.00;;;18.30;74.20;;;;;;5028986;28;20052;-66
2023/06/24 01:01:40;;;;;;;0.00;0.00;;;18.30;74.10;;;;;;5028636;28;20088;-65
2023/06/24 01:04:07;;;;;;;0.00;0.00;;;18.30;74.20;;;;;;5028639;28;20073;-66
2023/06/24 01:06:35;;;;;;;0.00;0.00;;;18.20;74.10;;;;;;5028758;28;20084;-66
2023/06/24 01:09:02;;;;;;;0.00;0.00;;;18.20;74.40;;;;;;5032595;28;20401;-66
2023/06/24 01:11:29;;;;;;;0.00;0.00;;;18.10;74.40;;;;;;5032952;28;20041;-66
2023/06/24 01:13:55;;;;;;;0.00;0.00;;;18.10;74.00;;;;;;4998250;28;20053;-65
2023/06/24 01:16:45;;;;;;;0.00;0.00;;;18.00;74.00;;;;;;5032194;28;20095;-66
2023/06/24 01:19:28;;;;;;;0.00;0.00;;;18.00;74.00;;;;;;5014474;28;20056;-66
2023/06/24 01:22:11;;;;;;;0.00;0.00;;;17.90;74.10;;;;;;5032713;28;20044;-65
2023/06/24 01:24:53;;;;;;;0.00;0.00;;;17.90;74.40;;;;;;5032271;28;20095;-65
2023/06/24 01:27:41;;;;;;;;;;;17.90;74.90;;;;;;5033061;28;20468;-66
2023/06/24 01:30:09;;;;;;;0.10;0.10;;;17.90;74.80;;;;;;5002442;28;19925;-66
2023/06/24 01:32:44;;;;;;;0.00;0.00;;;17.90;74.60;;;;;;5031919;28;20077;-66
2023/06/24 01:35:20;;;;;;;0.00;0.00;;;17.90;74.90;;;;;;5031707;28;20088;-66
2023/06/24 01:37:51;;;;;;;0.00;0.00;;;17.80;74.50;;;;;;5031934;28;20057;-66
2023/06/24 01:40:30;;;;;;;0.00;0.00;;;17.80;74.50;;;;;;5032090;28;20156;-66
2023/06/24 01:42:58;;;;;;;0.00;0.00;;;17.70;74.80;;;;;;5031268;28;20045;-66
2023/06/24 01:45:27;;;;;;;0.00;0.00;;;17.60;74.70;;;;;;5014293;28;20437;-66
2023/06/24 01:48:04;;;;;;;0.00;0.00;;;17.60;74.60;;;;;;5031904;28;20049;-67
2023/06/24 01:50:32;;;;;;;0.00;0.00;;;17.60;74.50;;;;;;5031473;28;20095;-66
2023/06/24 01:53:00;;;;;;;0.00;0.00;;;17.60;75.10;;;;;;5031387;28;20050;-66
2023/06/24 01:55:28;;;;;;;0.00;0.00;;;17.50;75.30;;;;;;5031864;28;20045;-66
2023/06/24 01:57:56;;;;;;;0.00;0.00;;;17.50;75.40;;;;;;5030973;28;20084;-67
2023/06/24 02:00:23;;;;;;;0.00;0.00;;;17.50;75.20;;;;;;5031931;28;20570;-66
2023/06/24 02:02:51;;;;;;;0.00;0.00;;;17.40;75.60;;;;;;5031344;28;20060;-66
2023/06/24 02:05:18;;;;;;;0.00;0.00;;;17.50;75.30;;;;;;5031149;28;20073;-66
2023/06/24 02:07:47;;;;;;;0.00;0.00;;;17.40;75.40;;;;;;5031379;28;20060;-66
2023/06/24 02:10:13;;;;;;;0.00;0.00;;;17.50;75.50;;;;;;5031384;28;20771;-66
2023/06/24 02:12:40;;;;;;;0.00;0.00;;;17.40;75.40;;;;;;5031322;28;20041;-66
2023/06/24 02:15:08;;;;;;;0.10;0.10;;;17.50;75.30;;;;;;5031487;28;20052;-66
2023/06/24 02:17:35;;;;;;;0.00;0.00;;;17.40;75.40;;;;;;5030829;28;20913;-66
2023/06/24 02:20:02;;;;;;;0.00;0.00;;;17.40;75.40;;;;;;5030286;28;20034;-66
2023/06/24 02:22:28;;;;;;;0.00;0.00;;;17.40;75.50;;;;;;5031069;28;20516;-66
2023/06/24 02:24:55;;;;;;;0.00;0.00;;;17.30;75.40;;;;;;5030911;28;20107;-66
2023/06/24 02:27:21;;;;;;;0.00;0.00;;;17.30;75.50;;;;;;5031049;28;20080;-66
2023/06/24 02:29:47;;;;;;;0.28;0.28;;;17.30;75.90;;;;;;5030991;28;20078;-66
2023/06/24 02:32:13;;;;;;;0.00;0.00;;;17.30;75.90;;;;;;5030786;28;20056;-66
2023/06/24 02:34:39;;;;;;;0.00;0.00;;;17.30;75.90;;;;;;5031154;28;20442;-66
2023/06/24 02:37:05;;;;;;;0.00;0.00;;;17.20;76.00;;;;;;5030604;28;20045;-66
2023/06/24 02:39:31;;;;;;;0.00;0.00;;;17.20;76.10;;;;;;5030525;28;20052;-66
2023/06/24 02:41:56;;;;;;;0.00;0.00;;;17.20;75.80;;;;;;5030175;28;20034;-66
2023/06/24 02:44:22;;;;;;;0.00;0.00;;;17.20;75.90;;;;;;5021854;28;20038;-66
2023/06/24 02:46:48;;;;;;;0.00;0.00;;;17.20;75.80;;;;;;5007522;28;20049;-66
2023/06/24 02:49:17;;;;;;;0.00;0.00;;;17.30;75.90;;;;;;5030561;28;20506;-66
2023/06/24 02:51:44;;;;;;;0.00;0.00;;;17.20;76.00;;;;;;5030967;28;20041;-65
2023/06/24 02:54:11;;;;;;;0.00;0.00;;;17.20;76.20;;;;;;5031303;28;20103;-66
2023/06/24 02:56:43;;;;;;;0.00;0.00;;;17.20;76.30;;;;;;5029624;28;20041;-66
2023/06/24 02:59:09;;;;;;;0.00;0.00;;;17.10;76.00;;;;;;5030977;28;20123;-67
2023/06/24 03:01:38;;;;;;;0.00;0.00;;;17.10;76.30;;;;;;5030663;28;20052;-65
2023/06/24 03:04:04;;;;;;;0.00;0.00;;;17.10;76.50;;;;;;5031261;28;20041;-66
2023/06/24 03:06:31;;;;;;;0.00;0.00;;;17.10;76.50;;;;;;5030335;28;20106;-66
2023/06/24 03:08:57;;;;;;;0.00;0.00;;;17.10;76.70;;;;;;5030562;28;20037;-66
2023/06/24 03:11:25;;;;;;;0.00;0.00;;;17.10;76.70;;;;;;5030700;28;20041;-66
2023/06/24 03:13:51;;;;;;;0.00;0.00;;;17.10;76.50;;;;;;5030509;28;20056;-66
2023/06/24 03:16:16;;;;;;;0.00;0.00;;;17.10;76.60;;;;;;5029984;28;20124;-66
2023/06/24 03:18:42;;;;;;;0.00;0.00;;;17.10;76.60;;;;;;5030313;28;20099;-66
2023/06/24 03:21:09;;;;;;;0.00;0.00;;;17.10;76.60;;;;;;5029807;28;20129;-66
2023/06/24 03:23:34;;;;;;;0.00;0.00;;;17.10;76.70;;;;;;5029815;28;20042;-66
2023/06/24 03:26:00;;;;;;;0.00;0.00;;;17.10;77.00;;;;;;5012712;28;20053;-65
2023/06/24 03:28:26;;;;;;;0.00;0.00;;;17.10;76.90;;;;;;5030335;28;20038;-66
2023/06/24 03:30:52;;;;;;;0.00;0.00;;;17.00;76.70;;;;;;5028573;28;20080;-66
2023/06/24 03:33:18;;;;;;;0.00;0.00;;;17.00;76.70;;;;;;5012466;28;20056;-66
2023/06/24 03:35:44;;;;;;;0.00;0.00;;;17.10;76.70;;;;;;5029469;28;20061;-66
2023/06/24 03:38:09;;;;;;;0.00;0.00;;;17.00;77.00;;;;;;5030173;28;20445;-65
2023/06/24 03:40:35;;;;;;;0.00;0.00;;;17.00;76.90;;;;;;5011865;28;20038;-66
2023/06/24 03:43:00;;;;;;;0.00;0.00;;;17.00;77.00;;;;;;5030256;28;20038;-65
2023/06/24 03:45:26;;;;;;;0.00;0.00;;;17.10;77.00;;;;;;5029503;28;20042;-66
2023/06/24 03:47:52;;;;;;;0.00;0.00;;;17.00;77.30;;;;;;5029786;28;20394;-66
2023/06/24 03:50:17;;;;;;;0.00;0.00;;;17.10;77.40;;;;;;5011770;28;20132;-66
2023/06/24 03:52:50;;;;;;;0.00;0.00;;;17.10;77.30;;;;;;5086768;27;20749;-66
2023/06/24 03:55:16;;;;;;;0.00;0.00;;;17.10;77.40;;;;;;5086483;28;20082;-66
2023/06/24 03:57:41;;;;;;;0.00;0.00;;;17.10;77.20;;;;;;5086550;28;20044;-66
2023/06/24 04:00:13;;;;;;;0.00;0.00;;;17.10;77.30;;;;;;5083576;28;20047;-67
2023/06/24 04:02:38;;;;;;;0.00;0.00;;;17.10;77.40;;;;;;5065834;28;20460;-66
2023/06/24 04:05:06;;;;;;;0.00;0.00;;;17.10;77.40;;;;;;5082747;28;20045;-66
2023/06/24 04:07:32;;;;;;;0.00;0.00;;;17.10;77.50;;;;;;5086199;28;20434;-66
2023/06/24 04:09:57;;;;;;;0.10;0.10;;;17.10;77.60;;;;;;5083973;28;20135;-66
2023/06/24 04:12:23;;;;;;;0.00;0.00;;;17.10;77.60;;;;;;5081576;28;20127;-67
2023/06/24 04:14:50;;;;;;;0.00;0.00;;;17.10;77.60;;;;;;5066206;28;20047;-66
2023/06/24 04:17:15;;;;;;;0.00;0.00;;;17.10;77.60;;;;;;5066950;28;20497;-66
2023/06/24 04:19:41;;;;;;;0.00;0.00;;;17.10;77.70;;;;;;5065883;28;20041;-65
2023/06/24 04:22:07;;;;;;;0.00;0.00;;;17.10;77.40;;;;;;5081480;28;20715;-67
2023/06/24 04:24:33;;;;;;;0.00;0.00;;;17.10;77.70;;;;;;5066848;28;20124;-66
2023/06/24 04:26:58;;;;;;;0.00;0.00;;;17.10;77.80;;;;;;5065962;28;20040;-66
2023/06/24 04:29:24;;;;;;;0.35;0.35;;;17.10;77.60;;;;;;5065683;28;20036;-66
2023/06/24 04:31:49;;;;;;;0.00;0.00;;;17.20;77.70;;;;;;5072387;28;20132;-66
2023/06/24 04:34:15;;;;;;;0.00;0.00;;;17.30;77.70;;;;;;5084753;28;20033;-66
2023/06/24 04:36:41;;;;;;;0.00;0.00;;;17.30;78.00;;;;;;5069773;28;20568;-66
2023/06/24 04:39:06;;;;;;;0.00;0.00;;;17.30;77.80;;;;;;5080943;28;20448;-66
2023/06/24 04:41:32;;;;;;;0.00;0.00;;;17.30;77.70;;;;;;5065431;28;20048;-67
2023/06/24 04:43:58;;;;;;;0.00;0.00;;;17.40;77.80;;;;;;5076246;28;20131;-66
2023/06/24 04:46:23;;;;;;;0.00;0.00;;;17.50;77.70;;;;;;5085750;28;20044;-66
2023/06/24 04:48:49;;;;;;;0.00;0.00;;;17.50;78.00;;;;;;5085317;28;20060;-64
2023/06/24 04:51:15;;;;;;;0.00;0.00;;;17.50;78.10;;;;;;5068872;28;20535;-66
2023/06/24 04:53:40;;;;;;;0.00;0.00;;;17.60;78.30;;;;;;5081878;28;20053;-66
2023/06/24 04:56:06;;;;;;;0.00;0.00;;;17.60;78.20;;;;;;5065197;28;20120;-66
2023/06/24 04:58:32;;;;;;;0.00;0.00;;;17.60;78.40;;;;;;5047189;28;20114;-66
2023/06/24 05:00:58;;;;;;;0.00;0.00;;;17.70;78.30;;;;;;5074903;28;20098;-66
2023/06/24 05:03:24;;;;;;;0.00;0.00;;;17.80;78.50;;;;;;5076479;28;20536;-66
2023/06/24 05:05:50;;;;;;;0.00;0.00;;;17.90;78.40;;;;;;5058914;28;20073;-66
2023/06/24 05:08:15;;;;;;;0.00;0.00;;;17.90;78.50;;;;;;5052448;28;20060;-66
2023/06/24 05:10:41;;;;;;;0.00;0.00;;;18.00;78.60;;;;;;5059584;28;20036;-66
2023/06/24 05:13:06;;;;;;;0.00;0.00;;;18.10;78.80;;;;;;5071625;28;20047;-66
2023/06/24 05:15:32;;;;;;;0.00;0.00;;;18.10;78.90;;;;;;5071426;28;20033;-66
2023/06/24 05:17:57;;;;;;;0.00;0.00;;;18.20;78.90;;;;;;5060423;28;20051;-66
2023/06/24 05:20:23;;;;;;;0.00;0.00;;;18.30;79.10;;;;;;5051320;28;20080;-66
2023/06/24 05:22:48;;;;;;;0.00;0.00;;;18.40;79.00;;;;;;5051085;28;20041;-66
2023/06/24 05:25:14;;;;;;;0.00;0.00;;;18.50;78.60;;;;;;5050786;28;20041;-66
2023/06/24 05:27:40;;;;;;;0.00;0.00;;;18.50;78.60;;;;;;5052912;28;20123;-66
2023/06/24 05:30:06;;;;;;;0.00;0.00;;;18.60;78.70;;;;;;5058873;28;20401;-66
2023/06/24 05:32:32;;;;;;;0.00;0.00;;;18.70;78.60;;;;;;5069789;28;20528;-67
2023/06/24 05:34:57;;;;;;;0.00;0.00;;;18.80;78.20;;;;;;5071092;28;20075;-68
2023/06/24 05:37:23;;;;;;;0.00;0.00;;;18.90;78.10;;;;;;5069657;28;20472;-66
2023/06/24 05:39:48;;;;;;;0.30;0.30;;;19.00;78.10;;;;;;5068920;28;20052;-67
2023/06/24 05:42:14;;;;;;;0.00;0.00;;;19.10;78.70;;;;;;5069432;28;20047;-67
2023/06/24 05:44:39;;;;;;;0.00;0.00;;;19.30;78.50;;;;;;5055822;28;20040;-67
2023/06/24 05:47:05;;;;;;;0.00;0.00;;;19.40;78.60;;;;;;5070553;28;20091;-67
2023/06/24 05:49:30;;;;;;;0.00;0.00;;;19.50;78.40;;;;;;5069860;28;20052;-67
2023/06/24 05:51:57;;;;;;;0.00;0.00;;;19.50;78.50;;;;;;5070297;28;20056;-66
2023/06/24 05:54:23;;;;;;;0.00;0.00;;;19.60;78.50;;;;;;5070337;28;20045;-67
2023/06/24 05:56:49;;;;;;;0.00;0.00;;;19.70;78.40;;;;;;5069345;28;20090;-67
2023/06/24 05:59:14;;;;;;;0.00;0.00;;;19.80;78.60;;;;;;5071022;28;20558;-66
2023/06/24 06:01:40;;;;;;;0.00;0.00;;;19.90;78.00;;;;;;5068211;28;20048;-66
2023/06/24 06:04:05;;;;;;;0.00;0.00;;;19.80;77.90;;;;;;5069860;28;20079;-66
2023/06/24 06:06:31;;;;;;;0.00;0.00;;;19.90;77.90;;;;;;5070269;28;20432;-67
2023/06/24 06:08:57;;;;;;;0.00;0.00;;;20.00;77.90;;;;;;5069320;28;20401;-66
2023/06/24 06:11:23;;;;;;;0.00;0.00;;;20.10;77.70;;;;;;5069663;28;20052;-67
2023/06/24 06:13:48;;;;;;;0.00;0.00;;;20.10;77.90;;;;;;5068902;28;20404;-67
2023/06/24 06:16:14;;;;;;;0.20;0.20;;;20.10;78.00;;;;;;5068409;28;20040;-67
2023/06/24 06:18:39;;;;;;;0.00;0.00;;;20.10;77.80;;;;;;5069650;28;20044;-68
2023/06/24 06:21:05;;;;;;;0.00;0.00;;;20.20;77.90;;;;;;5068140;28;20056;-68
2023/06/24 06:23:31;;;;;;;0.08;0.08;;;20.30;77.90;;;;;;5069700;28;20059;-68
2023/06/24 06:25:56;;;;;;;0.00;0.00;;;20.30;78.20;;;;;;5069717;28;20409;-68
2023/06/24 06:28:22;;;;;;;0.00;0.00;;;20.40;78.70;;;;;;5070021;28;20408;-66
2023/06/24 06:30:47;;;;;;;0.00;0.00;;;20.50;77.80;;;;;;5069855;28;20102;-68
2023/06/24 06:33:13;;;;;;;5.47;0.47;;;20.50;78.20;;;;;;5070108;28;20048;-71
2023/06/24 06:35:39;;;;;;;0.75;0.75;;;20.60;78.50;;;;;;5069468;28;20048;-71
2023/06/24 06:38:05;;;;;;;0.10;0.10;;;20.60;78.60;;;;;;5069240;28;20040;-71
2023/06/24 06:40:30;;;;;;;0.00;0.00;;;20.60;77.90;;;;;;5068306;28;20166;-76
2023/06/24 06:42:56;;;;;;;0.00;0.00;;;20.80;77.40;;;;;;5069799;28;20082;-68
2023/06/24 06:45:22;;;;;;;0.10;0.10;;;21.00;77.90;;;;;;5069328;28;20076;-69
2023/06/24 06:47:49;;;;;;;0.00;0.00;;;21.10;78.30;;;;;;5068146;28;20052;-68
2023/06/24 06:50:14;;;;;;;0.10;0.10;;;21.10;78.10;;;;;;5067866;28;20056;-68
2023/06/24 06:52:40;;;;;;;0.10;0.10;;;21.10;77.70;;;;;;5065816;28;20060;-68
2023/06/24 06:55:06;;;;;;;0.00;0.00;;;21.10;77.90;;;;;;5082537;28;20043;-69
2023/06/24 06:57:31;;;;;;;0.03;0.00;;;21.20;77.60;;;;;;5067667;28;20048;-69
2023/06/24 06:59:57;;;;;;;0.00;0.00;;;21.30;78.00;;;;;;5065599;28;20119;-70
2023/06/24 07:02:22;;;;;;;0.00;0.00;;;21.30;77.60;;;;;;5048635;28;20308;-69
2023/06/24 07:04:50;;;;;;;0.00;0.00;;;21.40;77.40;;;;;;5064890;28;20186;-69
2023/06/24 07:07:16;;;;;;;0.10;0.10;;;21.40;77.60;;;;;;5065469;28;20135;-69
2023/06/24 07:09:42;;;;;;;0.10;0.10;;;21.50;77.10;;;;;;5066365;28;20079;-69
2023/06/24 07:12:08;;;;;;;0.25;0.25;;;21.50;76.90;;;;;;5067177;28;20143;-67
2023/06/24 07:14:33;;;;;;;0.00;0.00;;;21.60;77.00;;;;;;5067737;28;20559;-66
2023/06/24 07:17:00;;;;;;;0.00;0.00;;;21.60;77.10;;;;;;5050330;28;20040;-67
2023/06/24 07:19:25;;;;;;;0.00;0.00;;;21.60;76.90;;;;;;5067863;28;20497;-67
2023/06/24 07:21:51;;;;;;;0.00;0.00;;;21.70;76.70;;;;;;5067997;28;20056;-69
2023/06/24 07:24:17;;;;;;;0.15;0.15;;;21.70;76.70;;;;;;5068887;28;20079;-69
2023/06/24 07:26:43;;;;;;;0.00;0.00;;;21.80;77.10;;;;;;5067947;28;20451;-69
2023/06/24 07:29:08;;;;;;;0.00;0.00;;;21.80;76.90;;;;;;5069217;28;20044;-69
2023/06/24 07:31:35;;;;;;;0.00;0.00;;;21.80;76.60;;;;;;5068196;28;20048;-69
2023/06/24 07:34:01;;;;;;;0.30;0.30;;;22.00;76.40;;;;;;5069021;28;20120;-69
2023/06/24 07:36:27;;;;;;;0.00;0.00;;;22.00;76.50;;;;;;5069150;28;20033;-69
2023/06/24 07:38:52;;;;;;;0.10;0.10;;;22.00;76.80;;;;;;5069129;28;20040;-69
2023/06/24 07:41:18;;;;;;;0.00;0.00;;;22.00;76.20;;;;;;5069029;28;20052;-69
2023/06/24 07:43:43;;;;;;;0.00;0.00;;;22.10;75.80;;;;;;5068878;28;20047;-69
2023/06/24 07:46:09;;;;;;;0.03;0.03;;;22.10;74.80;;;;;;5068618;28;20109;-69
2023/06/24 07:48:35;;;;;;;0.00;0.00;;;22.20;73.30;;;;;;5068862;28;20043;-69
2023/06/24 07:51:01;;;;;;;0.00;0.00;;;22.20;73.40;;;;;;5068935;28;20056;-69
2023/06/24 07:53:26;;;;;;;0.10;0.10;;;22.30;73.70;;;;;;5066205;28;20106;-69
2023/06/24 07:55:52;;;;;;;0.00;0.00;;;22.30;73.00;;;;;;5069060;28;20619;-68
2023/06/24 07:58:19;;;;;;;0.00;0.00;;;22.40;73.10;;;;;;5068874;28;20051;-68
2023/06/24 08:00:45;;;;;;;0.10;0.10;;;22.50;73.30;;;;;;5067793;28;20128;-64
2023/06/24 08:03:12;;;;;;;0.03;0.00;;;22.50;72.70;;;;;;5067445;28;20040;-68
2023/06/24 08:05:38;;;;;;;0.22;0.22;;;22.60;72.60;;;;;;5067217;28;20056;-66
2023/06/24 08:08:05;;;;;;;0.00;0.00;;;22.60;72.70;;;;;;5068683;28;20052;-66
2023/06/24 08:10:30;;;;;;;0.08;0.08;;;22.70;73.30;;;;;;5068217;28;20041;-66
2023/06/24 08:12:56;;;;;;;0.00;0.00;;;22.80;72.70;;;;;;5068200;28;20052;-66
2023/06/24 08:15:21;;;;;;;0.68;0.38;;;22.90;71.80;;;;;;5068611;28;20055;-66
2023/06/24 08:17:54;;;;;;;0.00;0.00;;;23.00;71.50;;;;;;5067185;28;20070;-64
2023/06/24 08:20:23;;;;;;;0.00;0.00;;;23.00;70.60;;;;;;5066425;28;20610;-66
2023/06/24 08:22:49;;;;;;;0.00;0.00;;;23.10;70.20;;;;;;5067742;28;20040;-67
2023/06/24 08:25:15;;;;;;;0.00;0.00;;;23.20;70.50;;;;;;5068719;28;20040;-67
2023/06/24 08:27:41;;;;;;;1.30;1.00;;;23.20;70.60;;;;;;5067845;28;20085;-67
2023/06/24 08:30:07;;;;;;;0.00;0.00;;;23.20;70.60;;;;;;5067953;28;20032;-67
2023/06/24 08:32:33;;;;;;;0.00;0.00;;;23.30;71.40;;;;;;5065851;28;20124;-70
2023/06/24 08:34:58;;;;;;;0.03;0.03;;;23.30;71.10;;;;;;5050700;28;20174;-67
2023/06/24 08:37:24;;;;;;;0.00;0.00;;;23.30;71.00;;;;;;5067008;28;20624;-66
2023/06/24 08:39:50;;;;;;;0.00;0.00;;;23.40;70.10;;;;;;5071628;28;20102;-67
2023/06/24 08:42:15;;;;;;;0.15;0.15;;;23.40;68.80;;;;;;5071464;28;20097;-67
2023/06/24 08:44:41;;;;;;;0.47;0.47;;;23.50;68.70;;;;;;5070235;28;20036;-67
2023/06/24 08:47:07;;;;;;;0.00;0.00;;;23.50;69.00;;;;;;5071565;28;20044;-67
2023/06/24 08:49:37;;;;;;;0.00;0.00;;;23.60;68.20;;;;;;5053680;28;20087;-67
2023/06/24 08:52:08;;;;;;;0.00;0.00;;;23.60;67.70;;;;;;5071443;28;20064;-68
2023/06/24 08:54:36;;;;;;;0.00;0.00;;;23.60;68.40;;;;;;5071696;28;20101;-69
2023/06/24 08:57:06;;;;;;;0.00;0.00;;;23.70;68.70;;;;;;5072045;28;20044;-67
2023/06/24 08:59:37;;;;;;;0.03;0.03;;;23.80;68.40;;;;;;5071673;28;20079;-67
2023/06/24 09:02:03;;;;;;;0.00;0.00;;;23.90;67.90;;;;;;5071571;28;20052;-68
2023/06/24 09:04:28;;;;;;;0.00;0.00;;;24.00;66.60;;;;;;5071534;28;20507;-67
2023/06/24 09:06:54;;;;;;;0.00;0.00;;;24.00;66.00;;;;;;5053320;28;20135;-67
2023/06/24 09:09:21;;;;;;;0.00;0.00;;;24.10;64.90;;;;;;5071311;28;20497;-67
2023/06/24 09:11:54;;;;;;;0.00;0.00;;;24.30;63.10;;;;;;5071209;28;20056;-67
2023/06/24 09:14:20;;;;;;;0.00;0.00;;;24.40;61.20;;;;;;5066546;28;20040;-67
2023/06/24 09:16:58;;;;;;;0.25;0.25;;;24.40;61.60;;;;;;5070401;28;20056;-67
2023/06/24 09:19:28;;;;;;;0.00;0.00;;;24.40;61.90;;;;;;5071475;28;20048;-68
2023/06/24 09:21:53;;;;;;;0.32;0.28;;;24.40;62.50;;;;;;5071755;28;20055;-67
2023/06/24 09:24:19;;;;;;;0.05;0.05;;;24.30;60.50;;;;;;5071463;28;20401;-67
2023/06/24 09:26:45;;;;;;;0.00;0.00;;;24.20;61.60;;;;;;5069642;28;20052;-74
2023/06/24 09:29:14;;;;;;;0.00;0.00;;;24.20;61.40;;;;;;5071498;28;20047;-64
2023/06/24 09:31:48;;;;;;;0.10;0.10;;;24.10;63.30;;;;;;5071330;28;20044;-63
2023/06/24 09:34:14;;;;;;;0.00;0.00;;;24.10;63.20;;;;;;5071334;28;20052;-64
2023/06/24 09:36:44;;;;;;;0.00;0.00;;;24.20;64.00;;;;;;5071078;28;20060;-64
2023/06/24 09:39:11;;;;;;;0.13;0.13;;;24.30;64.10;;;;;;5071278;28;20123;-63
2023/06/24 09:41:39;;;;;;;0.00;0.00;;;24.40;63.80;;;;;;5069703;28;20056;-63
2023/06/24 09:44:10;;;;;;;0.10;0.10;;;24.40;63.80;;;;;;5071195;28;20102;-63
2023/06/24 09:46:37;;;;;;;0.00;0.00;;;24.50;64.30;;;;;;5070400;28;20519;-64
2023/06/24 09:49:04;;;;;;;0.00;0.00;;;24.50;63.70;;;;;;5071048;28;20554;-64
2023/06/24 09:51:32;;;;;;;0.30;0.13;;;24.50;63.80;;;;;;5070964;28;20072;-63
2023/06/24 09:53:58;;;;;;;0.10;0.10;;;24.60;63.20;;;;;;5071404;28;20052;-63
2023/06/24 09:56:24;;;;;;;0.00;0.00;;;24.60;63.10;;;;;;5070653;28;20045;-63
2023/06/24 09:58:50;;;;;;;0.30;0.30;;;24.70;63.30;;;;;;5070940;28;20043;-64
2023/06/24 10:01:16;;;;;;;0.00;0.00;;;24.70;62.10;;;;;;5070781;28;20472;-63
2023/06/24 10:03:42;;;;;;;0.00;0.00;;;24.80;62.10;;;;;;5070214;28;20071;-63
2023/06/24 10:06:08;;;;;;;0.00;0.00;;;24.90;62.40;;;;;;5070404;28;20044;-64
2023/06/24 10:08:34;;;;;;;0.95;0.30;;;25.00;62.30;;;;;;5070758;28;20036;-63
2023/06/24 10:11:01;;;;;;;0.20;0.10;;;25.10;61.30;;;;;;5070504;28;20405;-63
2023/06/24 10:13:27;;;;;;;0.00;0.00;;;25.20;62.30;;;;;;5070448;28;20186;-63
2023/06/24 10:15:55;;;;;;;0.00;0.00;;;25.20;58.60;;;;;;5070918;28;20052;-63
2023/06/24 10:18:35;;;;;;;3.50;1.13;;;25.30;59.70;;;;;;5069234;28;20051;-63
2023/06/24 10:21:00;;;;;;;0.00;0.00;;;25.30;57.90;;;;;;5069993;28;20044;-63
2023/06/24 10:23:49;;;;;;;0.00;0.00;;;25.30;56.40;;;;;;5070366;28;20040;-63
2023/06/24 10:26:28;;;;;;;0.08;0.08;;;25.30;57.90;;;;;;5063482;28;20048;-64
2023/06/24 10:29:06;;;;;;;1.35;0.50;;;25.30;57.80;;;;;;5068913;28;20515;-63
2023/06/24 10:31:40;;;;;;;0.00;0.00;;;25.40;58.80;;;;;;5069500;28;20044;-63
2023/06/24 10:34:32;;;;;;;0.00;0.00;;;25.50;59.60;;;;;;5069486;28;20037;-64
2023/06/24 10:37:08;;;;;;;0.00;0.00;;;25.60;59.50;;;;;;5069905;28;20132;-63
2023/06/24 10:39:54;;;;;;;0.00;0.00;;;25.80;57.90;;;;;;5068410;28;20055;-63
2023/06/24 10:42:41;;;;;;;0.00;0.00;;;25.90;57.60;;;;;;5066371;28;20051;-65
2023/06/24 10:45:10;;;;;;;0.00;0.00;;;26.00;58.90;;;;;;5068049;28;20568;-64
2023/06/24 10:47:44;;;;;;;0.20;0.10;;;26.00;59.60;;;;;;5068907;28;20523;-63
2023/06/24 10:50:12;;;;;;;0.00;0.00;;;25.80;59.60;;;;;;5066646;28;20040;-63
2023/06/24 10:52:43;;;;;;;1.75;1.08;;;25.60;61.00;;;;;;5069176;28;20402;-64
2023/06/24 10:55:09;;;;;;;0.00;0.00;;;25.50;61.60;;;;;;5069004;28;20048;-64
2023/06/24 10:57:35;;;;;;;0.10;0.10;;;25.50;60.80;;;;;;5068989;28;20043;-63
2023/06/24 11:00:03;;;;;;;0.15;0.10;;;25.50;61.60;;;;;;5068218;28;20455;-64
2023/06/24 11:02:28;;;;;;;0.05;0.05;;;25.60;60.10;;;;;;5069520;28;20040;-64
2023/06/24 11:05:02;;;;;;;0.00;0.00;;;25.60;55.70;;;;;;5068904;28;20040;-64
2023/06/24 11:07:34;;;;;;;0.00;0.00;;;25.60;54.60;;;;;;5050189;28;20087;-64
2023/06/24 11:10:08;;;;;;;0.57;0.52;;;25.70;55.40;;;;;;5064124;28;20037;-63
2023/06/24 11:12:36;;;;;;;12.07;0.47;;;25.80;55.50;;;;;;5067575;28;20059;-64
2023/06/24 11:15:04;;;;;;;14.25;1.58;;;25.70;55.20;;;;;;5069343;28;20404;-64
2023/06/24 11:17:29;;;;;;;0.00;0.00;;;25.80;56.80;;;;;;5069072;28;20124;-64
2023/06/24 11:19:57;;;;;;;0.10;0.10;;;25.90;56.80;;;;;;5068917;28;20113;-64
2023/06/24 11:22:23;;;;;;;0.00;0.00;;;26.00;56.20;;;;;;5069225;28;20124;-64
2023/06/24 11:24:49;;;;;;;0.00;0.00;;;26.00;56.50;;;;;;5069309;28;20326;-64
2023/06/24 11:27:15;;;;;;;0.13;0.13;;;26.00;57.20;;;;;;5068677;28;20044;-63
2023/06/24 11:29:41;;;;;;;0.20;0.20;;;25.80;56.20;;;;;;5054293;28;20573;-64
2023/06/24 11:32:10;;;;;;;0.00;0.00;;;25.60;56.40;;;;;;5067289;28;20409;-66
2023/06/24 11:34:36;;;;;;;0.10;0.10;;;25.60;56.80;;;;;;5068918;28;20041;-66
2023/06/24 11:37:18;;;;;;;0.00;0.00;;;25.70;56.10;;;;;;5067435;28;20501;-66
2023/06/24 11:39:44;;;;;;;0.00;0.00;;;25.70;57.30;;;;;;5063311;28;20076;-63
2023/06/24 11:42:10;;;;;;;0.65;0.65;;;25.80;57.20;;;;;;5049161;28;20088;-65
2023/06/24 11:44:44;;;;;;;0.10;0.10;;;25.90;56.60;;;;;;5064722;28;20090;-65
2023/06/24 11:47:11;;;;;;;0.00;0.00;;;26.00;56.90;;;;;;5061759;28;20040;-65
2023/06/24 11:49:51;;;;;;;0.63;0.38;;;26.00;55.70;;;;;;5047508;28;20273;-66
2023/06/24 11:52:17;;;;;;;0.10;0.10;;;26.10;55.30;;;;;;5055801;28;20056;-64
2023/06/24 11:54:43;;;;;;;0.00;0.00;;;26.20;53.80;;;;;;5068155;28;20041;-65
2023/06/24 11:57:09;;;;;;;0.10;0.10;;;26.20;54.70;;;;;;5067773;28;20451;-64
2023/06/24 11:59:35;;;;;;;1.48;1.38;;;26.20;54.70;;;;;;5064955;28;20055;-65
2023/06/24 12:02:03;;;;;;;0.00;0.00;;;26.30;56.00;;;;;;5066344;28;20409;-64
2023/06/24 12:04:32;;;;;;;0.00;0.00;;;26.50;55.80;;;;;;5066984;28;20056;-64
2023/06/24 12:06:58;;;;;;;0.00;0.00;;;26.50;53.60;;;;;;5067594;28;20226;-64
2023/06/24 12:09:24;;;;;;;0.00;0.00;;;26.40;55.90;;;;;;5068953;28;20123;-64
2023/06/24 12:11:51;;;;;;;0.30;0.30;;;26.40;56.70;;;;;;5068638;28;20454;-64
2023/06/24 12:14:16;;;;;;;0.00;0.00;;;26.50;54.70;;;;;;5071387;28;20112;-64
2023/06/24 12:16:42;;;;;;;1.85;0.45;;;26.60;57.50;;;;;;5071760;28;20123;-66
2023/06/24 12:19:08;;;;;;;0.00;0.00;;;26.50;55.80;;;;;;5073012;28;20047;-67
2023/06/24 12:21:34;;;;;;;2.38;0.28;;;26.50;57.10;;;;;;5071478;28;20033;-67
2023/06/24 12:24:04;;;;;;;1.13;0.40;;;26.40;58.30;;;;;;5072294;28;20036;-66
2023/06/24 12:26:29;;;;;;;0.00;0.00;;;26.30;57.60;;;;;;5073735;28;20482;-67
2023/06/24 12:28:58;;;;;;;0.77;0.28;;;26.30;57.60;;;;;;5052121;28;20556;-67
2023/06/24 12:31:24;;;;;;;0.10;0.10;;;26.40;58.00;;;;;;5052404;28;20084;-68
2023/06/24 12:33:51;;;;;;;0.00;0.00;;;26.30;56.00;;;;;;5051548;28;20041;-69
2023/06/24 12:36:17;;;;;;;0.00;0.00;;;26.30;55.60;;;;;;5051982;28;20037;-67
2023/06/24 12:38:43;;;;;;;0.43;0.32;;;26.30;55.50;;;;;;5052577;28;20450;-68
2023/06/24 12:41:08;;;;;;;0.00;0.00;;;26.40;55.30;;;;;;5051513;28;20049;-65
2023/06/24 12:43:34;;;;;;;0.03;0.03;;;26.30;55.10;;;;;;5051774;28;20045;-65
2023/06/24 12:45:59;;;;;;;0.00;0.00;;;26.40;53.40;;;;;;5052255;28;20080;-65
2023/06/24 12:48:26;;;;;;;0.10;0.10;;;26.50;54.30;;;;;;5052447;28;20041;-65